createdAt,value
2024-01-10T00:00:42.329Z,100758.43
2024-01-10T00:03:08.924Z,100759.06
2024-01-10T00:05:35.458Z,100757.94
2024-01-10T00:08:02.007Z,100758.63
2024-01-10T00:10:28.561Z,100752.77
2024-01-10T00:12:55.131Z,100752.17
2024-01-10T00:15:21.702Z,100744.60
2024-01-10T00:17:48.320Z,100748.15
2024-01-10T00:20:15.084Z,100744.64
2024-01-10T00:22:41.772Z,100747.17
2024-01-10T00:25:08.913Z,100746.09
2024-01-10T00:27:35.377Z,100746.38
2024-01-10T00:30:01.947Z,100747.92
2024-01-10T00:32:28.669Z,100744.73
2024-01-10T00:34:55.459Z,100741.77
2024-01-10T00:37:22.073Z,100746.37
2024-01-10T00:39:48.569Z,100748.95
2024-01-10T00:42:15.075Z,100743.27
2024-01-10T00:44:41.599Z,100742.47
2024-01-10T00:47:08.135Z,100740.80
2024-01-10T00:49:34.795Z,100747.27
2024-01-10T00:52:01.477Z,100743.85
2024-01-10T00:54:28.004Z,100742.45
2024-01-10T00:56:54.535Z,100743.65
2024-01-10T00:59:21.017Z,100741.24
2024-01-10T01:01:47.664Z,100744.69
2024-01-10T01:04:14.237Z,100748.84
2024-01-10T01:06:40.736Z,100748.88
2024-01-10T01:09:07.257Z,100751.32
2024-01-10T01:11:33.790Z,100755.75
2024-01-10T01:14:00.397Z,100755.20
2024-01-10T01:16:27.014Z,100753.64
2024-01-10T01:18:53.573Z,100753.60
2024-01-10T01:21:20.322Z,100753.02
2024-01-10T01:23:46.845Z,100762.34
2024-01-10T01:26:15.630Z,100761.21
2024-01-10T01:28:42.354Z,100763.48
2024-01-10T01:31:09.066Z,100764.83
2024-01-10T01:33:35.659Z,100759.39
2024-01-10T01:36:02.261Z,100756.93
2024-01-10T01:38:28.810Z,100756.30
2024-01-10T01:40:55.386Z,100760.70
2024-01-10T01:43:23.964Z,100757.15
2024-01-10T01:45:56.513Z,100752.15
2024-01-10T01:48:25.229Z,100751.36
2024-01-10T01:50:55.539Z,100754.17
2024-01-10T01:53:22.714Z,100754.36
2024-01-10T01:55:49.827Z,100751.80
2024-01-10T01:58:16.738Z,100750.64
2024-01-10T02:00:44.761Z,100750.46
2024-01-10T02:03:11.899Z,100747.27
2024-01-10T02:05:39.228Z,100747.12
2024-01-10T02:08:06.388Z,100747.02
2024-01-10T02:10:33.192Z,100748.35
2024-01-10T02:13:00.098Z,100741.36
2024-01-10T02:15:26.967Z,100739.56
2024-01-10T02:17:53.580Z,100739.55
2024-01-10T02:20:22.140Z,100737.06
2024-01-10T02:22:50.177Z,100740.02
2024-01-10T02:25:16.673Z,100736.52
2024-01-10T02:27:43.385Z,100731.08
2024-01-10T02:30:11.265Z,100726.75
2024-01-10T02:32:38.421Z,100729.23
2024-01-10T02:35:06.314Z,100724.77
2024-01-10T02:37:32.913Z,100726.02
2024-01-10T02:39:59.738Z,100726.80
2024-01-10T02:42:29.931Z,100727.70
2024-01-10T02:44:56.424Z,100724.25
2024-01-10T02:47:23.070Z,100720.28
2024-01-10T02:49:50.120Z,100720.39
2024-01-10T02:52:16.812Z,100720.44
2024-01-10T02:54:43.321Z,100720.39
2024-01-10T02:57:09.816Z,100718.84
2024-01-10T02:59:36.327Z,100712.50
2024-01-10T03:02:02.973Z,100710.11
2024-01-10T03:04:29.683Z,100706.55
2024-01-10T03:06:56.186Z,100704.48
2024-01-10T03:09:24.213Z,100706.11
2024-01-10T03:11:50.753Z,100703.09
2024-01-10T03:14:17.330Z,100705.10
2024-01-10T03:16:44.027Z,100703.74
2024-01-10T03:19:10.680Z,100700.59
2024-01-10T03:21:37.539Z,100702.69
2024-01-10T03:24:04.918Z,100697.61
2024-01-10T03:26:31.670Z,100701.19
2024-01-10T03:28:58.800Z,100697.58
2024-01-10T03:31:25.407Z,100697.61
2024-01-10T03:33:52.227Z,100696.02
2024-01-10T03:36:19.506Z,100692.23
2024-01-10T03:38:46.275Z,100690.56
2024-01-10T03:41:16.800Z,100692.81
2024-01-10T03:43:43.841Z,100693.82
2024-01-10T03:46:10.999Z,100694.27
2024-01-10T03:48:38.349Z,100694.92
2024-01-10T03:51:05.322Z,100690.56
2024-01-10T03:53:32.093Z,100687.63
2024-01-10T03:55:58.651Z,100696.16
2024-01-10T03:58:25.366Z,100698.42
2024-01-10T04:00:51.893Z,100695.02
2024-01-10T04:03:18.852Z,100693.92
2024-01-10T04:05:45.727Z,100693.33
2024-01-10T04:08:12.489Z,100692.96
2024-01-10T04:10:39.014Z,100694.86
2024-01-10T04:13:05.648Z,100695.77
2024-01-10T04:15:32.142Z,100692.20
2024-01-10T04:17:58.689Z,100691.91
2024-01-10T04:20:25.423Z,100688.25
2024-01-10T04:22:52.072Z,100689.50
2024-01-10T04:25:18.659Z,100694.77
2024-01-10T04:27:45.237Z,100693.72
2024-01-10T04:30:12.848Z,100688.63
2024-01-10T04:32:39.512Z,100690.55
2024-01-10T04:35:07.968Z,100690.69
2024-01-10T04:37:34.566Z,100691.12
2024-01-10T04:40:01.065Z,100690.27
2024-01-10T04:42:27.583Z,100688.17
2024-01-10T04:44:54.163Z,100690.20
2024-01-10T04:47:20.909Z,100685.81
2024-01-10T04:49:47.646Z,100693.16
2024-01-10T04:52:14.270Z,100698.42
2024-01-10T04:54:40.798Z,100695.49
2024-01-10T04:57:07.999Z,100695.39
2024-01-10T04:59:34.543Z,100694.23
2024-01-10T05:02:01.344Z,100699.41
2024-01-10T05:04:27.859Z,100700.77
2024-01-10T05:06:54.375Z,100697.41
2024-01-10T05:09:21.005Z,100699.20
2024-01-10T05:11:52.438Z,100700.78
2024-01-10T05:14:22.693Z,100696.84
2024-01-10T05:16:49.620Z,100693.23
2024-01-10T05:19:16.463Z,100695.54
2024-01-10T05:21:43.139Z,100693.35
2024-01-10T05:24:09.888Z,100692.96
2024-01-10T05:26:36.798Z,100693.27
2024-01-10T05:29:03.375Z,100692.40
2024-01-10T05:31:29.875Z,100695.99
2024-01-10T05:33:56.508Z,100693.59
2024-01-10T05:36:24.311Z,100697.13
2024-01-10T05:38:50.813Z,100695.79
2024-01-10T05:41:17.387Z,100702.48
2024-01-10T05:43:45.262Z,100695.75
2024-01-10T05:46:12.027Z,100696.02
2024-01-10T05:48:38.641Z,100696.17
2024-01-10T05:51:05.735Z,100698.02
2024-01-10T05:53:32.465Z,100696.14
2024-01-10T05:55:59.417Z,100698.62
2024-01-10T05:58:26.137Z,100695.48
2024-01-10T06:00:53.134Z,100693.45
2024-01-10T06:03:19.850Z,100694.88
2024-01-10T06:05:46.454Z,100700.77
2024-01-10T06:08:15.217Z,100698.02
2024-01-10T06:10:41.918Z,100697.73
2024-01-10T06:13:08.507Z,100693.89
2024-01-10T06:15:35.071Z,100695.92
2024-01-10T06:18:01.726Z,100696.31
2024-01-10T06:20:29.184Z,100693.46
2024-01-10T06:22:56.054Z,100690.83
2024-01-10T06:25:22.731Z,100696.00
2024-01-10T06:27:49.240Z,100698.26
2024-01-10T06:30:15.812Z,100694.90
2024-01-10T06:32:42.423Z,100700.23
2024-01-10T06:35:11.237Z,100699.39
2024-01-10T06:37:39.178Z,100705.81
2024-01-10T06:40:07.008Z,100704.41
2024-01-10T06:42:34.558Z,100701.63
2024-01-10T06:45:01.140Z,100705.98
2024-01-10T06:47:27.790Z,100706.95
2024-01-10T06:49:54.533Z,100710.64
2024-01-10T06:52:21.374Z,100709.92
2024-01-10T06:54:47.880Z,100712.70
2024-01-10T06:57:14.436Z,100710.80
2024-01-10T06:59:40.915Z,100714.88
2024-01-10T07:02:07.480Z,100715.00
2024-01-10T07:04:34.309Z,100714.70
2024-01-10T07:07:01.837Z,100717.92
2024-01-10T07:09:28.509Z,100724.80
2024-01-10T07:11:55.031Z,100725.84
2024-01-10T07:14:21.784Z,100729.89
2024-01-10T07:16:49.157Z,100730.41
2024-01-10T07:19:16.123Z,100728.00
2024-01-10T07:21:43.864Z,100734.45
2024-01-10T07:24:11.350Z,100736.11
2024-01-10T07:26:38.300Z,100739.55
2024-01-10T07:29:05.315Z,100740.36
2024-01-10T07:31:31.936Z,100738.93
2024-01-10T07:33:58.662Z,100742.00
2024-01-10T07:36:30.956Z,100743.50
2024-01-10T07:39:01.049Z,100747.36
2024-01-10T07:41:28.420Z,100745.31
2024-01-10T07:43:55.128Z,100747.81
2024-01-10T07:46:21.692Z,100749.14
2024-01-10T07:48:48.229Z,100745.96
2024-01-10T07:51:14.875Z,100736.63
2024-01-10T07:53:41.562Z,100739.95
2024-01-10T07:56:08.172Z,100746.33
2024-01-10T07:58:34.792Z,100749.70
2024-01-10T08:01:01.568Z,100755.82
2024-01-10T08:03:28.156Z,100757.70
2024-01-10T08:05:54.798Z,100759.82
2024-01-10T08:08:21.566Z,100753.88
2024-01-10T08:10:48.235Z,100754.66
2024-01-10T08:13:14.746Z,100753.75
2024-01-10T08:15:42.847Z,100755.06
2024-01-10T08:18:09.480Z,100756.77
2024-01-10T08:20:36.185Z,100757.55
2024-01-10T08:23:03.175Z,100756.77
2024-01-10T08:25:30.862Z,100756.02
2024-01-10T08:27:58.867Z,100756.80
2024-01-10T08:30:26.087Z,100759.80
2024-01-10T08:32:53.597Z,100763.02
2024-01-10T08:35:20.518Z,100757.78
2024-01-10T08:37:47.803Z,100759.95
2024-01-10T08:40:16.701Z,100763.88
2024-01-10T08:42:43.473Z,100769.12
2024-01-10T08:45:12.177Z,100764.87
2024-01-10T08:47:38.861Z,100768.48
2024-01-10T08:50:06.475Z,100773.78
2024-01-10T08:52:33.401Z,100769.06
2024-01-10T08:55:00.035Z,100769.63
2024-01-10T08:57:29.101Z,100776.80
2024-01-10T08:59:55.797Z,100777.57
2024-01-10T09:02:24.478Z,100774.84
2024-01-10T09:04:51.517Z,100781.52
2024-01-10T09:07:19.568Z,100776.77
2024-01-10T09:09:46.427Z,100773.52
2024-01-10T09:12:13.005Z,100774.20
2024-01-10T09:14:39.760Z,100770.98
2024-01-10T09:17:07.062Z,100767.84
2024-01-10T09:19:33.691Z,100767.29
2024-01-10T09:22:00.526Z,100754.73
2024-01-10T09:24:30.361Z,100760.66
2024-01-10T09:26:57.860Z,100755.33
2024-01-10T09:29:27.028Z,100760.70
2024-01-10T09:31:54.105Z,100755.22
2024-01-10T09:34:21.537Z,100745.15
2024-01-10T09:36:48.277Z,100743.55
2024-01-10T09:39:15.320Z,100745.84
2024-01-10T09:41:48.780Z,100736.03
2024-01-10T09:44:18.848Z,100731.23
2024-01-10T09:46:49.181Z,100732.18
2024-01-10T09:49:16.107Z,100731.77
2024-01-10T09:51:42.807Z,100725.98
2024-01-10T09:54:09.554Z,100724.34
2024-01-10T09:56:36.076Z,100725.64
2024-01-10T09:59:07.329Z,100722.05
2024-01-10T10:01:34.584Z,100719.44
2024-01-10T10:04:03.458Z,100719.74
2024-01-10T10:06:30.141Z,100720.59
2024-01-10T10:08:56.968Z,100718.10
2024-01-10T10:11:23.730Z,100715.35
2024-01-10T10:13:50.345Z,100717.13
2024-01-10T10:16:26.396Z,100721.65
2024-01-10T10:18:59.113Z,100714.10
2024-01-10T10:21:29.379Z,100707.63
2024-01-10T10:24:05.030Z,100708.92
2024-01-10T10:26:34.861Z,100710.20
2024-01-10T10:29:01.890Z,100707.67
2024-01-10T10:31:30.240Z,100701.19
2024-01-10T10:33:57.169Z,100697.23
2024-01-10T10:36:23.832Z,100698.23
2024-01-10T10:38:50.721Z,100699.61
2024-01-10T10:41:17.620Z,100699.70
2024-01-10T10:43:44.417Z,100698.56
2024-01-10T10:46:16.204Z,100694.38
2024-01-10T10:48:44.525Z,100693.98
2024-01-10T10:51:15.126Z,100698.53
2024-01-10T10:53:46.406Z,100701.92
2024-01-10T10:56:13.659Z,100701.48
2024-01-10T10:58:44.479Z,100701.45
2024-01-10T11:01:14.107Z,100698.88
2024-01-10T11:03:43.838Z,100703.59
2024-01-10T11:06:10.784Z,100700.73
2024-01-10T11:08:43.877Z,100698.66
2024-01-10T11:11:35.177Z,100703.51
2024-01-10T11:14:21.268Z,100704.54
2024-01-10T11:17:10.997Z,100703.02
2024-01-10T11:20:00.044Z,100704.96
2024-01-10T11:22:44.524Z,100706.98
2024-01-10T11:25:12.262Z,100701.95
2024-01-10T11:27:38.864Z,100703.60
2024-01-10T11:30:06.964Z,100699.21
2024-01-10T11:32:35.392Z,100693.00
2024-01-10T11:35:08.492Z,100694.55
2024-01-10T11:37:45.385Z,100687.61
2024-01-10T11:40:15.273Z,100687.42
2024-01-10T11:42:43.345Z,100681.38
2024-01-10T11:45:10.169Z,100682.66
2024-01-10T11:47:42.366Z,100677.27
2024-01-10T11:50:09.364Z,100681.02
2024-01-10T11:52:38.234Z,100687.32
2024-01-10T11:55:08.399Z,100686.67
2024-01-10T11:57:35.969Z,100678.02
2024-01-10T12:00:03.932Z,100676.55
2024-01-10T12:02:31.067Z,100674.85
2024-01-10T12:04:58.099Z,100671.91
2024-01-10T12:07:26.325Z,100669.06
2024-01-10T12:09:53.060Z,100664.73
2024-01-10T12:12:19.851Z,100667.17
2024-01-10T12:14:47.527Z,100672.69
2024-01-10T12:17:15.231Z,100674.63
2024-01-10T12:19:46.151Z,100672.61
2024-01-10T12:22:13.372Z,100673.46
2024-01-10T12:24:47.820Z,100672.98
2024-01-10T12:27:17.628Z,100662.19
2024-01-10T12:29:44.269Z,100660.36
2024-01-10T12:32:11.573Z,100665.66
2024-01-10T12:34:44.027Z,100660.73
2024-01-10T12:37:11.866Z,100660.94
2024-01-10T12:39:39.994Z,100663.27
2024-01-10T12:42:06.866Z,100663.45
2024-01-10T12:44:33.526Z,100663.42
2024-01-10T12:47:01.568Z,100660.86
2024-01-10T12:49:28.272Z,100661.39
2024-01-10T12:51:55.079Z,100663.45
2024-01-10T12:54:22.016Z,100667.27
2024-01-10T12:56:48.674Z,100668.25
2024-01-10T12:59:15.385Z,100667.83
2024-01-10T13:01:43.331Z,100664.40
2024-01-10T13:04:13.586Z,100666.45
2024-01-10T13:06:41.712Z,100666.58
2024-01-10T13:09:08.681Z,100667.59
2024-01-10T13:11:36.775Z,100665.27
2024-01-10T13:14:03.502Z,100661.90
2024-01-10T13:16:30.730Z,100669.42
2024-01-10T13:18:59.615Z,100670.23
2024-01-10T13:21:26.779Z,100670.91
2024-01-10T13:23:53.559Z,100668.57
2024-01-10T13:26:20.189Z,100667.61
2024-01-10T13:28:46.879Z,100668.91
2024-01-10T13:31:13.990Z,100670.42
2024-01-10T13:33:46.633Z,100668.27
2024-01-10T13:36:15.502Z,100668.23
2024-01-10T13:38:42.167Z,100672.39
2024-01-10T13:41:09.169Z,100675.47
2024-01-10T13:43:35.720Z,100673.30
2024-01-10T13:46:08.606Z,100670.50
2024-01-10T13:48:36.731Z,100668.69
2024-01-10T13:51:03.581Z,100665.77
2024-01-10T13:53:30.170Z,100672.67
2024-01-10T13:55:56.941Z,100680.11
2024-01-10T13:58:24.834Z,100680.77
2024-01-10T14:00:52.613Z,100690.00
2024-01-10T14:03:19.336Z,100700.52
2024-01-10T14:05:46.224Z,100698.89
2024-01-10T14:08:12.951Z,100698.71
2024-01-10T14:10:40.405Z,100703.86
2024-01-10T14:13:06.820Z,100707.84
2024-01-10T14:15:33.379Z,100712.80
2024-01-10T14:18:00.078Z,100713.64
2024-01-10T14:20:26.821Z,100710.81
2024-01-10T14:22:53.697Z,100711.41
2024-01-10T14:25:21.975Z,100714.88
2024-01-10T14:27:48.843Z,100718.02
2024-01-10T14:30:16.758Z,100721.46
2024-01-10T14:32:43.995Z,100721.92
2024-01-10T14:35:11.060Z,100721.98
2024-01-10T14:37:38.062Z,100721.59
2024-01-10T14:40:06.036Z,100717.34
2024-01-10T14:42:34.141Z,100717.96
2024-01-10T14:45:02.339Z,100721.37
2024-01-10T14:47:30.375Z,100717.94
2024-01-10T14:49:59.044Z,100720.30
2024-01-10T14:52:28.696Z,100723.98
2024-01-10T14:54:55.356Z,100726.20
2024-01-10T14:57:23.213Z,100733.24
2024-01-10T14:59:49.941Z,100730.09
2024-01-10T15:02:19.718Z,100730.63
2024-01-10T15:04:46.635Z,100730.23
2024-01-10T15:07:14.451Z,100727.71
2024-01-10T15:09:43.056Z,100729.38
2024-01-10T15:12:10.497Z,100729.19
2024-01-10T15:14:39.939Z,100719.17
2024-01-10T15:17:09.948Z,100716.42
2024-01-10T15:19:37.514Z,100721.67
2024-01-10T15:22:06.153Z,100728.80
2024-01-10T15:24:33.608Z,100736.23
2024-01-10T15:27:08.153Z,100747.27
2024-01-10T15:29:34.911Z,100753.52
2024-01-10T15:32:02.087Z,100760.33
2024-01-10T15:34:29.017Z,100757.23
2024-01-10T15:36:55.623Z,100755.97
2024-01-10T15:39:22.640Z,100762.85
2024-01-10T15:41:51.121Z,100766.98
2024-01-10T15:44:22.122Z,100762.89
2024-01-10T15:46:49.818Z,100762.73
2024-01-10T15:49:17.205Z,100763.52
2024-01-10T15:51:44.040Z,100768.33
2024-01-10T15:54:10.892Z,100775.33
2024-01-10T15:56:40.512Z,100767.17
2024-01-10T15:59:08.251Z,100768.93
2024-01-10T16:01:37.953Z,100772.80
2024-01-10T16:04:04.974Z,100774.94
2024-01-10T16:06:33.261Z,100775.75
2024-01-10T16:09:01.089Z,100774.68
2024-01-10T16:11:28.141Z,100777.23
2024-01-10T16:13:54.745Z,100783.16
2024-01-10T16:16:30.644Z,100782.59
2024-01-10T16:18:58.023Z,100784.60
2024-01-10T16:21:24.571Z,100786.77
2024-01-10T16:23:52.295Z,100795.83
2024-01-10T16:26:18.933Z,100792.06
2024-01-10T16:28:45.873Z,100794.13
2024-01-10T16:31:12.541Z,100792.80
2024-01-10T16:33:39.258Z,100796.72
2024-01-10T16:36:06.624Z,100795.12
2024-01-10T16:38:33.277Z,100798.79
2024-01-10T16:41:00.320Z,100801.27
2024-01-10T16:43:28.245Z,100799.48
2024-01-10T16:45:56.819Z,100798.08
2024-01-10T16:48:23.605Z,100798.77
2024-01-10T16:50:50.713Z,100807.27
2024-01-10T16:53:17.579Z,100808.56
2024-01-10T16:55:44.234Z,100805.60
2024-01-10T16:58:10.847Z,100807.73
2024-01-10T17:00:37.764Z,100806.83
2024-01-10T17:03:05.000Z,100809.61
2024-01-10T17:05:35.412Z,100808.65
2024-01-10T17:08:05.089Z,100806.71
2024-01-10T17:10:31.811Z,100809.55
2024-01-10T17:12:58.326Z,100814.80
2024-01-10T17:15:24.817Z,100817.52
2024-01-10T17:17:51.569Z,100825.23
2024-01-10T17:20:18.295Z,100831.15
2024-01-10T17:22:44.889Z,100827.63
2024-01-10T17:25:12.715Z,100828.16
2024-01-10T17:27:39.962Z,100826.64
2024-01-10T17:30:08.052Z,100825.17
2024-01-10T17:32:35.126Z,100827.38
2024-01-10T17:35:04.162Z,100831.90
2024-01-10T17:37:31.040Z,100832.76
2024-01-10T17:39:57.715Z,100829.30
2024-01-10T17:42:24.320Z,100831.52
2024-01-10T17:44:50.890Z,100830.71
2024-01-10T17:47:17.683Z,100831.57
2024-01-10T17:49:44.457Z,100836.63
2024-01-10T17:52:11.068Z,100830.98
2024-01-10T17:54:37.946Z,100829.02
2024-01-10T17:57:05.404Z,100829.33
2024-01-10T17:59:31.930Z,100826.04
2024-01-10T18:01:58.724Z,100827.33
2024-01-10T18:04:25.380Z,100827.95
2024-01-10T18:06:52.068Z,100827.13
2024-01-10T18:09:18.640Z,100831.89
2024-01-10T18:11:45.179Z,100829.07
2024-01-10T18:14:11.905Z,100824.93
2024-01-10T18:16:38.483Z,100820.42
2024-01-10T18:19:05.066Z,100823.52
2024-01-10T18:21:31.733Z,100823.98
2024-01-10T18:23:59.281Z,100826.21
2024-01-10T18:26:26.261Z,100827.69
2024-01-10T18:28:53.051Z,100825.16
2024-01-10T18:31:19.690Z,100824.64
2024-01-10T18:33:48.169Z,100827.31
2024-01-10T18:36:16.144Z,100827.66
2024-01-10T18:38:42.888Z,100831.09
2024-01-10T18:41:09.800Z,100831.12
2024-01-10T18:43:36.575Z,100834.48
2024-01-10T18:46:03.114Z,100837.95
2024-01-10T18:48:29.737Z,100838.02
2024-01-10T18:50:56.496Z,100837.48
2024-01-10T18:53:23.007Z,100837.98
2024-01-10T18:55:49.631Z,100839.05
2024-01-10T18:58:16.782Z,100838.99
2024-01-10T19:00:44.360Z,100837.39
2024-01-10T19:03:10.975Z,100835.61
2024-01-10T19:05:38.020Z,100841.01
2024-01-10T19:08:05.064Z,100839.18
2024-01-10T19:10:31.584Z,100838.27
2024-01-10T19:12:58.102Z,100840.77
2024-01-10T19:15:25.047Z,100835.79
2024-01-10T19:17:51.847Z,100833.50
2024-01-10T19:20:18.662Z,100833.23
2024-01-10T19:22:47.260Z,100832.53
2024-01-10T19:25:13.880Z,100834.25
2024-01-10T19:27:40.488Z,100835.68
2024-01-10T19:30:10.811Z,100833.78
2024-01-10T19:32:37.495Z,100832.20
2024-01-10T19:35:04.955Z,100833.15
2024-01-10T19:37:31.518Z,100835.39
2024-01-10T19:39:58.903Z,100834.11
2024-01-10T19:42:26.701Z,100835.33
2024-01-10T19:44:54.299Z,100838.38
2024-01-10T19:47:20.932Z,100835.13
2024-01-10T19:49:47.503Z,100831.69
2024-01-10T19:52:16.226Z,100838.09
2024-01-10T19:54:43.428Z,100837.15
2024-01-10T19:57:09.934Z,100836.45
2024-01-10T19:59:36.545Z,100833.04
2024-01-10T20:02:08.906Z,100836.27
2024-01-10T20:04:35.592Z,100839.52
2024-01-10T20:07:02.050Z,100834.45
2024-01-10T20:09:28.852Z,100833.80
2024-01-10T20:11:55.430Z,100834.56
2024-01-10T20:14:22.189Z,100835.80
2024-01-10T20:16:49.756Z,100845.48
2024-01-10T20:19:17.104Z,100843.20
2024-01-10T20:21:43.696Z,100850.86
2024-01-10T20:24:10.316Z,100851.86
2024-01-10T20:26:37.070Z,100852.62
2024-01-10T20:29:03.778Z,100856.96
2024-01-10T20:31:30.436Z,100852.04
2024-01-10T20:33:57.060Z,100852.71
2024-01-10T20:36:24.259Z,100857.77
2024-01-10T20:38:50.893Z,100850.55
2024-01-10T20:41:17.466Z,100848.30
2024-01-10T20:43:43.971Z,100852.36
2024-01-10T20:46:10.532Z,100858.44
2024-01-10T20:48:37.250Z,100865.44
2024-01-10T20:51:04.073Z,100866.32
2024-01-10T20:53:30.651Z,100864.17
2024-01-10T20:55:57.386Z,100863.40
2024-01-10T20:58:23.979Z,100866.01
2024-01-10T21:00:53.122Z,100866.23
2024-01-10T21:03:20.054Z,100866.73
2024-01-10T21:05:46.899Z,100872.08
2024-01-10T21:08:15.080Z,100868.52
2024-01-10T21:10:41.748Z,100866.63
2024-01-10T21:13:08.240Z,100865.69
2024-01-10T21:15:35.094Z,100864.85
2024-01-10T21:18:01.796Z,100868.16
2024-01-10T21:20:31.039Z,100864.77
2024-01-10T21:23:00.256Z,100865.59
2024-01-10T21:25:27.647Z,100866.73
2024-01-10T21:27:54.187Z,100860.75
2024-01-10T21:30:20.827Z,100861.25
2024-01-10T21:32:47.677Z,100860.10
2024-01-10T21:35:14.489Z,100855.34
2024-01-10T21:37:41.364Z,100859.70
2024-01-10T21:40:08.674Z,100862.78
2024-01-10T21:42:35.404Z,100860.52
2024-01-10T21:45:01.850Z,100862.27
2024-01-10T21:47:33.001Z,100864.30
2024-01-10T21:50:00.800Z,100861.30
2024-01-10T21:52:28.066Z,100863.98
2024-01-10T21:54:55.351Z,100860.65
2024-01-10T21:57:24.115Z,100858.70
2024-01-10T21:59:51.195Z,100861.39
2024-01-10T22:02:17.807Z,100865.25
2024-01-10T22:04:45.873Z,100864.90
2024-01-10T22:07:13.295Z,100868.98
2024-01-10T22:09:39.862Z,100866.48
2024-01-10T22:12:08.132Z,100860.84
2024-01-10T22:14:34.934Z,100862.92
2024-01-10T22:17:01.835Z,100859.05
2024-01-10T22:19:28.619Z,100860.54
2024-01-10T22:21:55.389Z,100863.02
2024-01-10T22:24:22.175Z,100859.03
2024-01-10T22:26:51.545Z,100862.11
2024-01-10T22:29:18.736Z,100862.19
2024-01-10T22:31:45.388Z,100860.48
2024-01-10T22:34:12.176Z,100861.13
2024-01-10T22:36:38.864Z,100870.34
2024-01-10T22:39:05.592Z,100871.29
2024-01-10T22:41:32.230Z,100870.87
2024-01-10T22:43:58.850Z,100871.48
2024-01-10T22:46:26.027Z,100873.34
2024-01-10T22:48:53.056Z,100872.55
2024-01-10T22:51:19.738Z,100874.02
2024-01-10T22:53:46.317Z,100875.91
2024-01-10T22:56:13.029Z,100876.17
2024-01-10T22:58:39.600Z,100875.87
2024-01-10T23:01:06.177Z,100877.30
2024-01-10T23:03:39.335Z,100879.42
2024-01-10T23:06:07.365Z,100879.09
2024-01-10T23:08:36.297Z,100876.87
2024-01-10T23:11:03.569Z,100874.56
2024-01-10T23:13:30.186Z,100875.34
2024-01-10T23:15:56.757Z,100873.66
2024-01-10T23:18:23.532Z,100875.00
2024-01-10T23:20:50.128Z,100872.10
2024-01-10T23:23:16.699Z,100869.80
2024-01-10T23:25:43.329Z,100868.14
2024-01-10T23:28:09.946Z,100864.09
2024-01-10T23:30:36.530Z,100862.02
2024-01-10T23:33:04.403Z,100863.64
2024-01-10T23:35:40.119Z,100868.92
2024-01-10T23:38:12.123Z,100871.59
2024-01-10T23:40:41.250Z,100869.69
2024-01-10T23:43:15.508Z,100867.70
2024-01-10T23:45:50.756Z,100868.02
2024-01-10T23:48:17.609Z,100862.48
2024-01-10T23:50:44.761Z,100866.27
2024-01-10T23:53:11.479Z,100868.52
2024-01-10T23:55:37.981Z,100865.92
2024-01-10T23:58:04.787Z,100870.13
